sensor_id;sensor_type;location;lat;lon;timestamp;pressure;altitude;pressure_sealevel;temperature;humidity
20019;BME280;10170;42.502;26.526;2023-04-15T00:01:08;99078.94;;;14.14;100.00
20019;BME280;10170;42.502;26.526;2023-04-15T00:03:35;99060.78;;;14.16;100.00
20019;BME280;10170;42.502;26.526;2023-04-15T00:06:02;99068.16;;;14.09;100.00
20019;BME280;10170;42.502;26.526;2023-04-15T00:08:29;99073.50;;;13.92;100.00
20019;BME280;10170;42.502;26.526;2023-04-15T00:10:56;99056.84;;;13.73;100.00
20019;BME280;10170;42.502;26.526;2023-04-15T00:13:28;99058.31;;;13.81;100.00
20019;BME280;10170;42.502;26.526;2023-04-15T00:15:55;99045.00;;;13.69;100.00
20019;BME280;10170;42.502;26.526;2023-04-15T00:18:23;99043.09;;;13.98;100.00
20019;BME280;10170;42.502;26.526;2023-04-15T00:20:50;99041.41;;;13.92;100.00
20019;BME280;10170;42.502;26.526;2023-04-15T00:23:18;99055.75;;;13.86;100.00
20019;BME280;10170;42.502;26.526;2023-04-15T00:25:45;99049.53;;;13.97;100.00
20019;BME280;10170;42.502;26.526;2023-04-15T00:28:12;99039.63;;;13.81;100.00
20019;BME280;10170;42.502;26.526;2023-04-15T00:30:39;99043.81;;;13.60;100.00
20019;BME280;10170;42.502;26.526;2023-04-15T00:33:06;99046.94;;;13.57;100.00
20019;BME280;10170;42.502;26.526;2023-04-15T00:35:33;99037.75;;;13.65;100.00
20019;BME280;10170;42.502;26.526;2023-04-15T00:38:00;99040.16;;;13.66;100.00
20019;BME280;10170;42.502;26.526;2023-04-15T00:40:26;99044.34;;;13.62;100.00
20019;BME280;10170;42.502;26.526;2023-04-15T00:42:53;99034.66;;;13.56;100.00
20019;BME280;10170;42.502;26.526;2023-04-15T00:45:20;99038.28;;;13.50;100.00
20019;BME280;10170;42.502;26.526;2023-04-15T00:47:47;99038.56;;;13.65;100.00
20019;BME280;10170;42.502;26.526;2023-04-15T00:50:14;99025.88;;;13.44;100.00
20019;BME280;10170;42.502;26.526;2023-04-15T00:52:40;99036.69;;;13.38;100.00
20019;BME280;10170;42.502;26.526;2023-04-15T00:55:09;99038.34;;;13.39;100.00
20019;BME280;10170;42.502;26.526;2023-04-15T00:57:38;99035.56;;;13.62;100.00
20019;BME280;10170;42.502;26.526;2023-04-15T01:00:05;99039.16;;;13.56;100.00
20019;BME280;10170;42.502;26.526;2023-04-15T01:02:34;99024.59;;;13.47;100.00
20019;BME280;10170;42.502;26.526;2023-04-15T01:05:02;99028.31;;;13.46;100.00
20019;BME280;10170;42.502;26.526;2023-04-15T01:07:30;99030.75;;;13.47;100.00
20019;BME280;10170;42.502;26.526;2023-04-15T01:09:57;99028.31;;;13.62;100.00
20019;BME280;10170;42.502;26.526;2023-04-15T01:12:25;99030.75;;;13.47;100.00
20019;BME280;10170;42.502;26.526;2023-04-15T01:14:53;99047.00;;;13.46;100.00
20019;BME280;10170;42.502;26.526;2023-04-15T01:17:20;99038.34;;;13.39;100.00
20019;BME280;10170;42.502;26.526;2023-04-15T01:19:47;99036.78;;;13.43;100.00
20019;BME280;10170;42.502;26.526;2023-04-15T01:22:14;99049.03;;;13.27;100.00
20019;BME280;10170;42.502;26.526;2023-04-15T01:24:45;99045.91;;;13.30;100.00
20019;BME280;10170;42.502;26.526;2023-04-15T01:27:17;99047.53;;;13.31;100.00
20019;BME280;10170;42.502;26.526;2023-04-15T01:29:44;99036.19;;;13.24;100.00
20019;BME280;10170;42.502;26.526;2023-04-15T01:32:11;99026.94;;;13.43;100.00
20019;BME280;10170;42.502;26.526;2023-04-15T01:34:38;99002.09;;;13.15;100.00
20019;BME280;10170;42.502;26.526;2023-04-15T01:37:05;99001.31;;;13.03;100.00
20019;BME280;10170;42.502;26.526;2023-04-15T01:39:31;99016.03;;;13.05;100.00
20019;BME280;10170;42.502;26.526;2023-04-15T01:41:59;99003.97;;;12.91;100.00
20019;BME280;10170;42.502;26.526;2023-04-15T01:44:25;99036.72;;;12.87;100.00
20019;BME280;10170;42.502;26.526;2023-04-15T01:46:53;99063.06;;;12.83;100.00
20019;BME280;10170;42.502;26.526;2023-04-15T01:49:19;99042.41;;;12.90;100.00
20019;BME280;10170;42.502;26.526;2023-04-15T01:51:46;99042.84;;;12.99;100.00
20019;BME280;10170;42.502;26.526;2023-04-15T01:54:13;99051.97;;;13.14;100.00
20019;BME280;10170;42.502;26.526;2023-04-15T01:56:40;99043.03;;;13.20;100.00
20019;BME280;10170;42.502;26.526;2023-04-15T01:59:06;99031.25;;;13.05;100.00
20019;BME280;10170;42.502;26.526;2023-04-15T02:01:34;99030.72;;;12.68;100.00
20019;BME280;10170;42.502;26.526;2023-04-15T02:04:00;99030.59;;;12.63;100.00
20019;BME280;10170;42.502;26.526;2023-04-15T02:06:27;99021.81;;;12.51;100.00
20019;BME280;10170;42.502;26.526;2023-04-15T02:08:54;99061.56;;;12.41;100.00
20019;BME280;10170;42.502;26.526;2023-04-15T02:11:21;99060.19;;;12.50;100.00
20019;BME280;10170;42.502;26.526;2023-04-15T02:13:48;99028.31;;;12.43;100.00
20019;BME280;10170;42.502;26.526;2023-04-15T02:16:18;99017.97;;;12.35;100.00
20019;BME280;10170;42.502;26.526;2023-04-15T02:18:45;99019.25;;;12.21;100.00
20019;BME280;10170;42.502;26.526;2023-04-15T02:21:13;99025.63;;;12.09;100.00
20019;BME280;10170;42.502;26.526;2023-04-15T02:23:40;99029.13;;;12.32;100.00
20019;BME280;10170;42.502;26.526;2023-04-15T02:26:07;99020.66;;;12.35;100.00
20019;BME280;10170;42.502;26.526;2023-04-15T02:28:33;99020.78;;;12.29;100.00
20019;BME280;10170;42.502;26.526;2023-04-15T02:31:06;99033.72;;;12.14;100.00
20019;BME280;10170;42.502;26.526;2023-04-15T02:33:35;99030.53;;;12.35;100.00
20019;BME280;10170;42.502;26.526;2023-04-15T02:36:03;99007.66;;;12.16;100.00
20019;BME280;10170;42.502;26.526;2023-04-15T02:38:30;99025.75;;;12.14;100.00
20019;BME280;10170;42.502;26.526;2023-04-15T02:40:57;99018.22;;;12.11;100.00
20019;BME280;10170;42.502;26.526;2023-04-15T02:43:24;99019.00;;;12.00;100.00
20019;BME280;10170;42.502;26.526;2023-04-15T02:45:50;99029.94;;;12.10;100.00
20019;BME280;10170;42.502;26.526;2023-04-15T02:48:17;99029.56;;;12.18;100.00
20019;BME280;10170;42.502;26.526;2023-04-15T02:50:45;99032.00;;;12.08;100.00
20019;BME280;10170;42.502;26.526;2023-04-15T02:53:13;99029.09;;;11.98;100.00
20019;BME280;10170;42.502;26.526;2023-04-15T02:55:44;99015.53;;;11.99;100.00
20019;BME280;10170;42.502;26.526;2023-04-15T02:58:11;99027.47;;;11.97;100.00
20019;BME280;10170;42.502;26.526;2023-04-15T03:00:38;99026.78;;;11.90;100.00
20019;BME280;10170;42.502;26.526;2023-04-15T03:03:05;99037.66;;;11.88;100.00
20019;BME280;10170;42.502;26.526;2023-04-15T03:05:32;99038.47;;;12.00;100.00
20019;BME280;10170;42.502;26.526;2023-04-15T03:07:59;99035.13;;;12.05;100.00
20019;BME280;10170;42.502;26.526;2023-04-15T03:10:26;99038.03;;;12.26;100.00
20019;BME280;10170;42.502;26.526;2023-04-15T03:12:53;99022.97;;;12.20;100.00
20019;BME280;10170;42.502;26.526;2023-04-15T03:15:21;99020.53;;;12.07;100.00
20019;BME280;10170;42.502;26.526;2023-04-15T03:17:47;99024.09;;;12.01;100.00
20019;BME280;10170;42.502;26.526;2023-04-15T03:20:15;99017.03;;;11.84;100.00
20019;BME280;10170;42.502;26.526;2023-04-15T03:22:42;99022.63;;;11.94;100.00
20019;BME280;10170;42.502;26.526;2023-04-15T03:25:09;99031.41;;;11.94;100.00
20019;BME280;10170;42.502;26.526;2023-04-15T03:27:37;99023.31;;;12.01;100.00
20019;BME280;10170;42.502;26.526;2023-04-15T03:30:04;99016.69;;;12.03;100.00
20019;BME280;10170;42.502;26.526;2023-04-15T03:32:32;99015.44;;;12.06;100.00
20019;BME280;10170;42.502;26.526;2023-04-15T03:34:59;99026.09;;;12.06;100.00
20019;BME280;10170;42.502;26.526;2023-04-15T03:37:25;99026.66;;;11.96;100.00
20019;BME280;10170;42.502;26.526;2023-04-15T03:39:52;99031.41;;;11.94;100.00
20019;BME280;10170;42.502;26.526;2023-04-15T03:42:19;99033.47;;;11.92;100.00
20019;BME280;10170;42.502;26.526;2023-04-15T03:44:46;99032.91;;;11.90;100.00
20019;BME280;10170;42.502;26.526;2023-04-15T03:47:13;99014.28;;;11.90;100.00
20019;BME280;10170;42.502;26.526;2023-04-15T03:49:39;99013.56;;;11.95;100.00
20019;BME280;10170;42.502;26.526;2023-04-15T03:52:06;99021.44;;;11.90;100.00
20019;BME280;10170;42.502;26.526;2023-04-15T03:54:33;99031.63;;;11.81;100.00
20019;BME280;10170;42.502;26.526;2023-04-15T03:57:00;99029.41;;;11.78;100.00
20019;BME280;10170;42.502;26.526;2023-04-15T03:59:27;99041.09;;;11.77;100.00
20019;BME280;10170;42.502;26.526;2023-04-15T04:01:53;99044.78;;;11.64;100.00
20019;BME280;10170;42.502;26.526;2023-04-15T04:04:20;99052.97;;;11.63;100.00
20019;BME280;10170;42.502;26.526;2023-04-15T04:06:47;99050.00;;;11.71;100.00
20019;BME280;10170;42.502;26.526;2023-04-15T04:09:14;99061.34;;;11.67;100.00
20019;BME280;10170;42.502;26.526;2023-04-15T04:11:40;99064.13;;;11.72;100.00
20019;BME280;10170;42.502;26.526;2023-04-15T04:14:07;99072.78;;;11.67;100.00
20019;BME280;10170;42.502;26.526;2023-04-15T04:16:34;99083.88;;;11.64;100.00
20019;BME280;10170;42.502;26.526;2023-04-15T04:19:01;99078.25;;;11.72;100.00
20019;BME280;10170;42.502;26.526;2023-04-15T04:21:28;99067.16;;;11.75;100.00
20019;BME280;10170;42.502;26.526;2023-04-15T04:23:55;99069.09;;;11.68;100.00
20019;BME280;10170;42.502;26.526;2023-04-15T04:26:22;99067.06;;;11.63;100.00
20019;BME280;10170;42.502;26.526;2023-04-15T04:28:48;99065.22;;;11.64;100.00
20019;BME280;10170;42.502;26.526;2023-04-15T04:31:15;99072.13;;;11.72;100.00
20019;BME280;10170;42.502;26.526;2023-04-15T04:33:42;99075.25;;;11.69;100.00
20019;BME280;10170;42.502;26.526;2023-04-15T04:36:09;99078.78;;;11.62;100.00
20019;BME280;10170;42.502;26.526;2023-04-15T04:38:35;99068.50;;;11.66;100.00
20019;BME280;10170;42.502;26.526;2023-04-15T04:41:02;99065.06;;;11.77;100.00
20019;BME280;10170;42.502;26.526;2023-04-15T04:43:29;99058.56;;;11.73;100.00
20019;BME280;10170;42.502;26.526;2023-04-15T04:45:56;99053.13;;;11.68;100.00
20019;BME280;10170;42.502;26.526;2023-04-15T04:48:22;99067.97;;;11.76;100.00
20019;BME280;10170;42.502;26.526;2023-04-15T04:50:49;99052.94;;;11.81;100.00
20019;BME280;10170;42.502;26.526;2023-04-15T04:53:16;99039.09;;;11.73;100.00
20019;BME280;10170;42.502;26.526;2023-04-15T04:55:43;99052.53;;;11.66;100.00
20019;BME280;10170;42.502;26.526;2023-04-15T04:58:10;99065.63;;;11.68;100.00
20019;BME280;10170;42.502;26.526;2023-04-15T05:00:37;99058.81;;;11.72;100.00
20019;BME280;10170;42.502;26.526;2023-04-15T05:03:03;99064.38;;;11.70;100.00
20019;BME280;10170;42.502;26.526;2023-04-15T05:05:30;99069.69;;;11.70;100.00
20019;BME280;10170;42.502;26.526;2023-04-15T05:07:57;99071.22;;;11.78;100.00
20019;BME280;10170;42.502;26.526;2023-04-15T05:10:24;99059.47;;;11.67;100.00
20019;BME280;10170;42.502;26.526;2023-04-15T05:12:50;99054.13;;;11.67;100.00
20019;BME280;10170;42.502;26.526;2023-04-15T05:15:18;99051.66;;;11.84;100.00
20019;BME280;10170;42.502;26.526;2023-04-15T05:17:44;99042.75;;;11.90;100.00
20019;BME280;10170;42.502;26.526;2023-04-15T05:20:11;99065.34;;;11.99;100.00
20019;BME280;10170;42.502;26.526;2023-04-15T05:22:39;99079.72;;;11.98;100.00
20019;BME280;10170;42.502;26.526;2023-04-15T05:25:06;99076.25;;;11.97;100.00
20019;BME280;10170;42.502;26.526;2023-04-15T05:27:33;99071.47;;;11.88;100.00
20019;BME280;10170;42.502;26.526;2023-04-15T05:30:00;99075.97;;;11.87;100.00
20019;BME280;10170;42.502;26.526;2023-04-15T05:32:27;99082.66;;;11.78;100.00
20019;BME280;10170;42.502;26.526;2023-04-15T05:34:54;99075.59;;;11.72;100.00
20019;BME280;10170;42.502;26.526;2023-04-15T05:37:21;99074.09;;;11.76;100.00
20019;BME280;10170;42.502;26.526;2023-04-15T05:39:47;99070.13;;;11.67;100.00
20019;BME280;10170;42.502;26.526;2023-04-15T05:42:14;99090.41;;;11.68;100.00
20019;BME280;10170;42.502;26.526;2023-04-15T05:44:41;99089.19;;;11.64;100.00
20019;BME280;10170;42.502;26.526;2023-04-15T05:47:08;99107.41;;;11.67;100.00
20019;BME280;10170;42.502;26.526;2023-04-15T05:49:36;99112.44;;;11.75;100.00
20019;BME280;10170;42.502;26.526;2023-04-15T05:52:03;99110.06;;;11.67;100.00
20019;BME280;10170;42.502;26.526;2023-04-15T05:54:30;99113.78;;;11.66;100.00
20019;BME280;10170;42.502;26.526;2023-04-15T05:56:57;99109.31;;;11.60;100.00
20019;BME280;10170;42.502;26.526;2023-04-15T05:59:23;99103.31;;;11.83;100.00
20019;BME280;10170;42.502;26.526;2023-04-15T06:01:50;99107.50;;;11.90;100.00
20019;BME280;10170;42.502;26.526;2023-04-15T06:04:17;99103.09;;;11.96;100.00
20019;BME280;10170;42.502;26.526;2023-04-15T06:06:44;99100.91;;;11.93;100.00
20019;BME280;10170;42.502;26.526;2023-04-15T06:09:11;99109.94;;;12.03;100.00
20019;BME280;10170;42.502;26.526;2023-04-15T06:11:38;99119.94;;;12.08;100.00
20019;BME280;10170;42.502;26.526;2023-04-15T06:14:06;99107.13;;;12.28;100.00
20019;BME280;10170;42.502;26.526;2023-04-15T06:16:33;99105.16;;;12.35;100.00
20019;BME280;10170;42.502;26.526;2023-04-15T06:19:02;99119.66;;;12.50;100.00
20019;BME280;10170;42.502;26.526;2023-04-15T06:21:29;99132.28;;;12.55;100.00
20019;BME280;10170;42.502;26.526;2023-04-15T06:23:58;99145.28;;;12.40;100.00
20019;BME280;10170;42.502;26.526;2023-04-15T06:26:27;99152.91;;;12.36;100.00
20019;BME280;10170;42.502;26.526;2023-04-15T06:28:53;99152.44;;;12.28;100.00
20019;BME280;10170;42.502;26.526;2023-04-15T06:31:21;99147.16;;;12.51;100.00
20019;BME280;10170;42.502;26.526;2023-04-15T06:33:48;99170.91;;;12.52;100.00
20019;BME280;10170;42.502;26.526;2023-04-15T06:36:14;99170.56;;;12.60;100.00
20019;BME280;10170;42.502;26.526;2023-04-15T06:38:41;99167.81;;;12.67;100.00
20019;BME280;10170;42.502;26.526;2023-04-15T06:41:08;99166.41;;;12.76;100.00
20019;BME280;10170;42.502;26.526;2023-04-15T06:43:35;99166.97;;;12.78;100.00
20019;BME280;10170;42.502;26.526;2023-04-15T06:46:01;99169.53;;;12.96;100.00
20019;BME280;10170;42.502;26.526;2023-04-15T06:48:28;99171.66;;;12.94;100.00
20019;BME280;10170;42.502;26.526;2023-04-15T06:50:55;99182.44;;;12.99;100.00
20019;BME280;10170;42.502;26.526;2023-04-15T06:53:24;99166.19;;;13.12;100.00
20019;BME280;10170;42.502;26.526;2023-04-15T06:55:53;99172.69;;;13.28;100.00
20019;BME280;10170;42.502;26.526;2023-04-15T06:58:20;99183.56;;;13.38;100.00
20019;BME280;10170;42.502;26.526;2023-04-15T07:00:47;99176.75;;;13.19;100.00
20019;BME280;10170;42.502;26.526;2023-04-15T07:03:14;99200.88;;;13.01;100.00
20019;BME280;10170;42.502;26.526;2023-04-15T07:05:41;99212.56;;;12.77;100.00
20019;BME280;10170;42.502;26.526;2023-04-15T07:08:08;99196.78;;;12.98;100.00
20019;BME280;10170;42.502;26.526;2023-04-15T07:10:35;99214.94;;;13.08;100.00
20019;BME280;10170;42.502;26.526;2023-04-15T07:13:03;99213.06;;;13.20;100.00
20019;BME280;10170;42.502;26.526;2023-04-15T07:15:29;99218.88;;;13.17;100.00
20019;BME280;10170;42.502;26.526;2023-04-15T07:17:56;99219.47;;;13.19;100.00
20019;BME280;10170;42.502;26.526;2023-04-15T07:20:23;99222.25;;;13.35;100.00
20019;BME280;10170;42.502;26.526;2023-04-15T07:22:49;99225.72;;;13.36;100.00
20019;BME280;10170;42.502;26.526;2023-04-15T07:25:16;99232.72;;;13.14;100.00
20019;BME280;10170;42.502;26.526;2023-04-15T07:27:43;99235.16;;;13.15;100.00
20019;BME280;10170;42.502;26.526;2023-04-15T07:30:10;99240.91;;;13.01;100.00
20019;BME280;10170;42.502;26.526;2023-04-15T07:32:38;99242.69;;;13.07;100.00
20019;BME280;10170;42.502;26.526;2023-04-15T07:35:05;99240.72;;;13.14;100.00
20019;BME280;10170;42.502;26.526;2023-04-15T07:37:31;99249.59;;;12.96;100.00
20019;BME280;10170;42.502;26.526;2023-04-15T07:39:59;99252.13;;;12.91;100.00
20019;BME280;10170;42.502;26.526;2023-04-15T07:42:25;99263.75;;;12.97;100.00
20019;BME280;10170;42.502;26.526;2023-04-15T07:44:52;99261.91;;;12.97;100.00
20019;BME280;10170;42.502;26.526;2023-04-15T07:47:19;99263.56;;;13.10;100.00
20019;BME280;10170;42.502;26.526;2023-04-15T07:49:46;99266.53;;;13.02;100.00
20019;BME280;10170;42.502;26.526;2023-04-15T07:52:12;99264.16;;;13.12;100.00
20019;BME280;10170;42.502;26.526;2023-04-15T07:54:39;99260.75;;;13.74;100.00
20019;BME280;10170;42.502;26.526;2023-04-15T07:57:06;99249.97;;;13.69;100.00
20019;BME280;10170;42.502;26.526;2023-04-15T07:59:33;99225.31;;;13.67;100.00
20019;BME280;10170;42.502;26.526;2023-04-15T08:02:00;99289.69;;;13.65;100.00
20019;BME280;10170;42.502;26.526;2023-04-15T08:04:27;99287.25;;;13.52;100.00
20019;BME280;10170;42.502;26.526;2023-04-15T08:06:54;99281.78;;;13.59;100.00
20019;BME280;10170;42.502;26.526;2023-04-15T08:09:20;99297.81;;;13.70;100.00
20019;BME280;10170;42.502;26.526;2023-04-15T08:11:48;99290.81;;;13.69;100.00
20019;BME280;10170;42.502;26.526;2023-04-15T08:14:15;99304.13;;;14.04;100.00
20019;BME280;10170;42.502;26.526;2023-04-15T08:16:42;99312.47;;;14.19;100.00
20019;BME280;10170;42.502;26.526;2023-04-15T08:19:09;99317.56;;;14.32;100.00
20019;BME280;10170;42.502;26.526;2023-04-15T08:21:36;99323.53;;;14.79;100.00
20019;BME280;10170;42.502;26.526;2023-04-15T08:24:02;99329.44;;;15.42;100.00
20019;BME280;10170;42.502;26.526;2023-04-15T08:26:29;99325.94;;;15.58;100.00
20019;BME280;10170;42.502;26.526;2023-04-15T08:28:56;99332.31;;;16.34;100.00
20019;BME280;10170;42.502;26.526;2023-04-15T08:31:22;99348.19;;;16.83;100.00
20019;BME280;10170;42.502;26.526;2023-04-15T08:33:49;99346.88;;;16.59;100.00
20019;BME280;10170;42.502;26.526;2023-04-15T08:36:18;99348.00;;;16.90;100.00
20019;BME280;10170;42.502;26.526;2023-04-15T08:38:45;99348.47;;;16.87;100.00
20019;BME280;10170;42.502;26.526;2023-04-15T08:41:25;99355.44;;;17.10;100.00
20019;BME280;10170;42.502;26.526;2023-04-15T08:43:56;99360.38;;;16.69;100.00
20019;BME280;10170;42.502;26.526;2023-04-15T08:46:23;99346.97;;;16.69;100.00
20019;BME280;10170;42.502;26.526;2023-04-15T08:48:51;99352.84;;;16.93;100.00
20019;BME280;10170;42.502;26.526;2023-04-15T08:51:22;99352.38;;;16.74;100.00
20019;BME280;10170;42.502;26.526;2023-04-15T08:53:50;99348.63;;;17.34;100.00
20019;BME280;10170;42.502;26.526;2023-04-15T08:56:18;99358.09;;;17.73;100.00
20019;BME280;10170;42.502;26.526;2023-04-15T08:58:45;99348.34;;;17.30;100.00
20019;BME280;10170;42.502;26.526;2023-04-15T09:01:13;99333.97;;;16.83;100.00
20019;BME280;10170;42.502;26.526;2023-04-15T09:03:40;99333.56;;;17.28;100.00
20019;BME280;10170;42.502;26.526;2023-04-15T09:06:07;99345.97;;;17.02;100.00
20019;BME280;10170;42.502;26.526;2023-04-15T09:08:34;99352.56;;;17.21;100.00
20019;BME280;10170;42.502;26.526;2023-04-15T09:11:02;99360.56;;;18.21;100.00
20019;BME280;10170;42.502;26.526;2023-04-15T09:13:28;99377.41;;;18.53;100.00
20019;BME280;10170;42.502;26.526;2023-04-15T09:15:55;99375.38;;;18.96;100.00
20019;BME280;10170;42.502;26.526;2023-04-15T09:18:29;99361.59;;;18.20;100.00
20019;BME280;10170;42.502;26.526;2023-04-15T09:21:07;99370.03;;;19.31;100.00
20019;BME280;10170;42.502;26.526;2023-04-15T09:23:38;99378.16;;;19.41;100.00
20019;BME280;10170;42.502;26.526;2023-04-15T09:26:05;99377.88;;;19.57;100.00
20019;BME280;10170;42.502;26.526;2023-04-15T09:28:40;99385.97;;;19.67;100.00
20019;BME280;10170;42.502;26.526;2023-04-15T09:31:07;99380.47;;;18.92;100.00
20019;BME280;10170;42.502;26.526;2023-04-15T09:33:33;99374.25;;;18.86;100.00
20019;BME280;10170;42.502;26.526;2023-04-15T09:36:04;99378.03;;;18.19;100.00
20019;BME280;10170;42.502;26.526;2023-04-15T09:38:31;99372.94;;;18.99;100.00
20019;BME280;10170;42.502;26.526;2023-04-15T09:40:58;99379.84;;;18.55;100.00
20019;BME280;10170;42.502;26.526;2023-04-15T09:43:38;99382.94;;;19.09;100.00
20019;BME280;10170;42.502;26.526;2023-04-15T09:46:05;99382.88;;;20.29;100.00
20019;BME280;10170;42.502;26.526;2023-04-15T09:48:32;99383.75;;;20.78;100.00
20019;BME280;10170;42.502;26.526;2023-04-15T09:50:59;99382.53;;;21.10;100.00
20019;BME280;10170;42.502;26.526;2023-04-15T09:53:27;99369.97;;;20.01;100.00
20019;BME280;10170;42.502;26.526;2023-04-15T09:55:58;99370.28;;;19.29;100.00
20019;BME280;10170;42.502;26.526;2023-04-15T09:58:34;99365.97;;;19.28;100.00
20019;BME280;10170;42.502;26.526;2023-04-15T10:01:03;99367.59;;;19.29;100.00
20019;BME280;10170;42.502;26.526;2023-04-15T10:03:32;99365.72;;;19.60;100.00
20019;BME280;10170;42.502;26.526;2023-04-15T10:06:01;99358.34;;;20.21;100.00
20019;BME280;10170;42.502;26.526;2023-04-15T10:08:30;99359.91;;;21.34;100.00
20019;BME280;10170;42.502;26.526;2023-04-15T10:10:59;99362.75;;;21.76;97.80
20019;BME280;10170;42.502;26.526;2023-04-15T10:13:29;99363.66;;;21.00;94.95
20019;BME280;10170;42.502;26.526;2023-04-15T10:16:13;99358.19;;;21.10;100.00
20019;BME280;10170;42.502;26.526;2023-04-15T10:18:44;99357.22;;;20.32;100.00
20019;BME280;10170;42.502;26.526;2023-04-15T10:21:12;99355.03;;;20.92;100.00
20019;BME280;10170;42.502;26.526;2023-04-15T10:23:44;99347.19;;;20.42;100.00
20019;BME280;10170;42.502;26.526;2023-04-15T10:26:12;99354.81;;;20.84;100.00
20019;BME280;10170;42.502;26.526;2023-04-15T10:28:40;99354.75;;;20.40;97.78
20019;BME280;10170;42.502;26.526;2023-04-15T10:31:08;99350.25;;;20.01;95.97
20019;BME280;10170;42.502;26.526;2023-04-15T10:33:38;99347.25;;;20.27;98.19
20019;BME280;10170;42.502;26.526;2023-04-15T10:36:05;99341.72;;;20.57;100.00
20019;BME280;10170;42.502;26.526;2023-04-15T10:38:38;99341.25;;;20.99;97.87
20019;BME280;10170;42.502;26.526;2023-04-15T10:43:38;99334.81;;;22.33;76.00
20019;BME280;10170;42.502;26.526;2023-04-15T10:46:05;99331.09;;;22.90;75.24
20019;BME280;10170;42.502;26.526;2023-04-15T10:48:32;99333.25;;;22.51;76.12
20019;BME280;10170;42.502;26.526;2023-04-15T10:51:02;99315.41;;;22.03;80.04
20019;BME280;10170;42.502;26.526;2023-04-15T10:53:29;99325.22;;;22.83;74.86
20019;BME280;10170;42.502;26.526;2023-04-15T10:55:57;99325.44;;;22.26;74.37
20019;BME280;10170;42.502;26.526;2023-04-15T10:58:24;99289.88;;;22.51;79.42
20019;BME280;10170;42.502;26.526;2023-04-15T11:00:52;99333.38;;;21.65;83.46
20019;BME280;10170;42.502;26.526;2023-04-15T11:03:45;99329.47;;;22.70;85.90
20019;BME280;10170;42.502;26.526;2023-04-15T11:06:13;99321.41;;;22.84;83.15
20019;BME280;10170;42.502;26.526;2023-04-15T11:08:57;99330.03;;;21.73;98.09
20019;BME280;10170;42.502;26.526;2023-04-15T11:14:32;99327.47;;;22.57;76.41
20019;BME280;10170;42.502;26.526;2023-04-15T11:17:00;99329.34;;;23.50;71.36
20019;BME280;10170;42.502;26.526;2023-04-15T11:19:34;99330.25;;;23.27;66.41
20019;BME280;10170;42.502;26.526;2023-04-15T11:22:10;99316.53;;;23.18;66.07
20019;BME280;10170;42.502;26.526;2023-04-15T11:24:47;99311.84;;;23.42;74.72
20019;BME280;10170;42.502;26.526;2023-04-15T11:27:22;99326.44;;;23.28;68.30
20019;BME280;10170;42.502;26.526;2023-04-15T11:29:49;99319.28;;;22.81;61.28
20019;BME280;10170;42.502;26.526;2023-04-15T11:32:16;99331.31;;;22.93;62.79
20019;BME280;10170;42.502;26.526;2023-04-15T11:34:45;99313.84;;;23.37;64.52
20019;BME280;10170;42.502;26.526;2023-04-15T11:37:12;99321.56;;;23.30;61.25
20019;BME280;10170;42.502;26.526;2023-04-15T11:39:42;99316.41;;;22.12;65.14
20019;BME280;10170;42.502;26.526;2023-04-15T11:42:17;99303.75;;;22.86;67.27
20019;BME280;10170;42.502;26.526;2023-04-15T11:44:44;99316.53;;;22.44;64.48
20019;BME280;10170;42.502;26.526;2023-04-15T11:47:23;99313.44;;;22.32;65.94
20019;BME280;10170;42.502;26.526;2023-04-15T11:49:50;99303.66;;;21.88;65.76
20019;BME280;10170;42.502;26.526;2023-04-15T11:52:17;99298.41;;;22.63;66.22
20019;BME280;10170;42.502;26.526;2023-04-15T11:54:44;99301.69;;;22.78;64.92
20019;BME280;10170;42.502;26.526;2023-04-15T11:57:11;99293.63;;;22.73;63.37
20019;BME280;10170;42.502;26.526;2023-04-15T11:59:42;99287.69;;;22.53;63.99
20019;BME280;10170;42.502;26.526;2023-04-15T12:02:12;99294.50;;;21.56;70.09
20019;BME280;10170;42.502;26.526;2023-04-15T12:04:39;99289.75;;;22.61;69.04
20019;BME280;10170;42.502;26.526;2023-04-15T12:07:07;99287.78;;;22.66;67.63
20019;BME280;10170;42.502;26.526;2023-04-15T12:09:36;99264.75;;;22.45;67.94
20019;BME280;10170;42.502;26.526;2023-04-15T12:12:03;99282.91;;;23.00;65.29
20019;BME280;10170;42.502;26.526;2023-04-15T12:14:31;99280.06;;;23.11;65.11
20019;BME280;10170;42.502;26.526;2023-04-15T12:17:03;99280.41;;;23.23;66.44
20019;BME280;10170;42.502;26.526;2023-04-15T12:19:38;99277.28;;;22.97;65.02
20019;BME280;10170;42.502;26.526;2023-04-15T12:22:13;99278.13;;;23.30;64.67
20019;BME280;10170;42.502;26.526;2023-04-15T12:24:42;99267.28;;;23.11;64.72
20019;BME280;10170;42.502;26.526;2023-04-15T12:27:10;99263.09;;;23.51;66.51
20019;BME280;10170;42.502;26.526;2023-04-15T12:29:39;99216.69;;;22.32;68.42
20019;BME280;10170;42.502;26.526;2023-04-15T12:34:40;99273.06;;;23.69;64.14
20019;BME280;10170;42.502;26.526;2023-04-15T12:37:10;99271.28;;;22.63;64.56
20019;BME280;10170;42.502;26.526;2023-04-15T12:39:39;99266.19;;;22.80;65.69
20019;BME280;10170;42.502;26.526;2023-04-15T12:42:07;99263.50;;;23.26;65.05
20019;BME280;10170;42.502;26.526;2023-04-15T12:44:35;99265.84;;;24.19;64.02
20019;BME280;10170;42.502;26.526;2023-04-15T12:47:02;99261.53;;;23.77;65.25
20019;BME280;10170;42.502;26.526;2023-04-15T12:49:30;99265.03;;;23.64;65.33
20019;BME280;10170;42.502;26.526;2023-04-15T12:51:59;99252.47;;;23.03;67.57
20019;BME280;10170;42.502;26.526;2023-04-15T12:54:27;99260.28;;;23.24;66.36